sensor_id;sensor_type;location;lat;lon;timestamp;temperature;humidity
51765;DHT22;37835;53.256;6.456;2022-12-26T00:00:10;8.00;99.90
51765;DHT22;37835;53.256;6.456;2022-12-26T00:02:36;7.30;99.90
51765;DHT22;37835;53.256;6.456;2022-12-26T00:05:02;9.60;99.90
51765;DHT22;37835;53.256;6.456;2022-12-26T00:07:28;8.00;99.90
51765;DHT22;37835;53.256;6.456;2022-12-26T00:09:53;8.00;99.90
51765;DHT22;37835;53.256;6.456;2022-12-26T00:12:19;8.00;99.90
51765;DHT22;37835;53.256;6.456;2022-12-26T00:14:44;8.80;99.90
51765;DHT22;37835;53.256;6.456;2022-12-26T00:17:10;8.00;99.90
51765;DHT22;37835;53.256;6.456;2022-12-26T00:19:36;7.80;99.90
51765;DHT22;37835;53.256;6.456;2022-12-26T00:22:01;8.00;99.90
51765;DHT22;37835;53.256;6.456;2022-12-26T00:24:27;8.00;99.90
51765;DHT22;37835;53.256;6.456;2022-12-26T00:26:52;8.10;99.90
51765;DHT22;37835;53.256;6.456;2022-12-26T00:29:18;8.00;99.90
51765;DHT22;37835;53.256;6.456;2022-12-26T00:31:44;7.80;99.90
51765;DHT22;37835;53.256;6.456;2022-12-26T00:34:09;8.10;99.90
51765;DHT22;37835;53.256;6.456;2022-12-26T00:36:35;8.00;99.90
51765;DHT22;37835;53.256;6.456;2022-12-26T00:39:02;8.00;99.90
51765;DHT22;37835;53.256;6.456;2022-12-26T00:41:28;8.00;99.90
51765;DHT22;37835;53.256;6.456;2022-12-26T00:43:53;8.00;99.90
51765;DHT22;37835;53.256;6.456;2022-12-26T00:46:20;8.00;99.90
51765;DHT22;37835;53.256;6.456;2022-12-26T00:48:46;8.00;99.90
51765;DHT22;37835;53.256;6.456;2022-12-26T00:51:12;8.00;99.90
51765;DHT22;37835;53.256;6.456;2022-12-26T00:53:38;7.80;99.90
51765;DHT22;37835;53.256;6.456;2022-12-26T00:56:04;9.10;99.90
51765;DHT22;37835;53.256;6.456;2022-12-26T00:58:30;8.00;99.90
51765;DHT22;37835;53.256;6.456;2022-12-26T01:01:05;8.00;99.90
51765;DHT22;37835;53.256;6.456;2022-12-26T01:03:30;8.10;99.90
51765;DHT22;37835;53.256;6.456;2022-12-26T01:05:56;8.00;99.90
51765;DHT22;37835;53.256;6.456;2022-12-26T01:08:21;7.50;99.90
51765;DHT22;37835;53.256;6.456;2022-12-26T01:10:47;7.70;99.90
51765;DHT22;37835;53.256;6.456;2022-12-26T01:13:13;7.90;99.90
51765;DHT22;37835;53.256;6.456;2022-12-26T01:15:39;8.00;99.90
51765;DHT22;37835;53.256;6.456;2022-12-26T01:18:05;8.10;99.90
51765;DHT22;37835;53.256;6.456;2022-12-26T01:20:31;8.00;99.90
51765;DHT22;37835;53.256;6.456;2022-12-26T01:22:56;8.10;99.90
51765;DHT22;37835;53.256;6.456;2022-12-26T01:25:22;8.00;99.90
51765;DHT22;37835;53.256;6.456;2022-12-26T01:27:48;8.30;99.90
51765;DHT22;37835;53.256;6.456;2022-12-26T01:30:16;8.80;99.90
51765;DHT22;37835;53.256;6.456;2022-12-26T01:32:41;8.10;99.90
51765;DHT22;37835;53.256;6.456;2022-12-26T01:35:07;8.00;99.90
51765;DHT22;37835;53.256;6.456;2022-12-26T01:37:33;8.10;99.90
51765;DHT22;37835;53.256;6.456;2022-12-26T01:39:58;8.10;99.90
51765;DHT22;37835;53.256;6.456;2022-12-26T01:42:25;8.00;99.90
51765;DHT22;37835;53.256;6.456;2022-12-26T01:44:55;8.00;99.90
51765;DHT22;37835;53.256;6.456;2022-12-26T01:47:24;8.00;99.90
51765;DHT22;37835;53.256;6.456;2022-12-26T01:49:52;8.10;99.90
51765;DHT22;37835;53.256;6.456;2022-12-26T01:52:26;8.00;99.90
51765;DHT22;37835;53.256;6.456;2022-12-26T01:54:53;7.60;99.90
51765;DHT22;37835;53.256;6.456;2022-12-26T01:57:23;8.30;99.90
51765;DHT22;37835;53.256;6.456;2022-12-26T01:59:51;8.00;99.90
51765;DHT22;37835;53.256;6.456;2022-12-26T02:02:18;6.60;99.90
51765;DHT22;37835;53.256;6.456;2022-12-26T02:04:47;8.00;99.90
51765;DHT22;37835;53.256;6.456;2022-12-26T02:07:35;7.80;99.90
51765;DHT22;37835;53.256;6.456;2022-12-26T02:10:02;8.00;99.90
51765;DHT22;37835;53.256;6.456;2022-12-26T02:12:32;8.00;99.90
51765;DHT22;37835;53.256;6.456;2022-12-26T02:14:59;7.90;99.90
51765;DHT22;37835;53.256;6.456;2022-12-26T02:17:25;8.00;99.90
51765;DHT22;37835;53.256;6.456;2022-12-26T02:31:55;7.30;99.90
51765;DHT22;37835;53.256;6.456;2022-12-26T02:34:50;8.10;99.90
51765;DHT22;37835;53.256;6.456;2022-12-26T02:40:16;8.00;99.90
51765;DHT22;37835;53.256;6.456;2022-12-26T02:42:57;8.10;99.90
51765;DHT22;37835;53.256;6.456;2022-12-26T02:57:02;7.10;99.90
51765;DHT22;37835;53.256;6.456;2022-12-26T03:00:01;8.10;99.90
51765;DHT22;37835;53.256;6.456;2022-12-26T03:03:17;8.10;99.90
51765;DHT22;37835;53.256;6.456;2022-12-26T03:06:11;9.40;99.90
51765;DHT22;37835;53.256;6.456;2022-12-26T03:09:07;8.10;99.90
51765;DHT22;37835;53.256;6.456;2022-12-26T03:11:58;7.90;99.90
51765;DHT22;37835;53.256;6.456;2022-12-26T03:14:51;8.10;99.90
51765;DHT22;37835;53.256;6.456;2022-12-26T03:17:32;8.20;99.90
51765;DHT22;37835;53.256;6.456;2022-12-26T03:20:12;8.20;99.90
51765;DHT22;37835;53.256;6.456;2022-12-26T03:25:13;8.20;99.90
51765;DHT22;37835;53.256;6.456;2022-12-26T03:28:00;8.20;99.90
51765;DHT22;37835;53.256;6.456;2022-12-26T03:30:26;8.20;99.90
51765;DHT22;37835;53.256;6.456;2022-12-26T03:33:10;8.20;99.90
51765;DHT22;37835;53.256;6.456;2022-12-26T03:35:54;8.20;99.90
51765;DHT22;37835;53.256;6.456;2022-12-26T03:38:25;8.10;99.90
51765;DHT22;37835;53.256;6.456;2022-12-26T03:41:02;8.20;99.90
51765;DHT22;37835;53.256;6.456;2022-12-26T03:50:34;8.30;99.90
51765;DHT22;37835;53.256;6.456;2022-12-26T03:59:11;8.30;99.90
51765;DHT22;37835;53.256;6.456;2022-12-26T04:01:57;8.30;99.90
51765;DHT22;37835;53.256;6.456;2022-12-26T04:04:45;8.30;99.90
51765;DHT22;37835;53.256;6.456;2022-12-26T04:07:36;8.60;99.90
51765;DHT22;37835;53.256;6.456;2022-12-26T04:10:27;8.40;99.90
51765;DHT22;37835;53.256;6.456;2022-12-26T04:13:19;8.40;99.90
51765;DHT22;37835;53.256;6.456;2022-12-26T04:16:30;8.40;99.90
51765;DHT22;37835;53.256;6.456;2022-12-26T04:24:51;8.50;99.90
51765;DHT22;37835;53.256;6.456;2022-12-26T04:27:37;8.50;99.90
51765;DHT22;37835;53.256;6.456;2022-12-26T04:30:21;8.50;99.90
51765;DHT22;37835;53.256;6.456;2022-12-26T04:33:27;8.50;99.90
51765;DHT22;37835;53.256;6.456;2022-12-26T04:36:27;8.50;99.90
51765;DHT22;37835;53.256;6.456;2022-12-26T04:39:14;8.50;99.90
51765;DHT22;37835;53.256;6.456;2022-12-26T04:42:00;8.50;99.90
51765;DHT22;37835;53.256;6.456;2022-12-26T04:44:46;8.40;99.90
51765;DHT22;37835;53.256;6.456;2022-12-26T04:47:14;8.50;99.90
51765;DHT22;37835;53.256;6.456;2022-12-26T04:49:41;8.50;99.90
51765;DHT22;37835;53.256;6.456;2022-12-26T04:52:25;8.50;99.90
51765;DHT22;37835;53.256;6.456;2022-12-26T04:55:11;8.50;99.90
51765;DHT22;37835;53.256;6.456;2022-12-26T04:57:37;8.50;99.90
51765;DHT22;37835;53.256;6.456;2022-12-26T05:00:03;8.50;99.90
51765;DHT22;37835;53.256;6.456;2022-12-26T05:02:29;8.50;99.90
51765;DHT22;37835;53.256;6.456;2022-12-26T05:05:13;7.30;99.90
51765;DHT22;37835;53.256;6.456;2022-12-26T05:07:58;7.80;99.90
51765;DHT22;37835;53.256;6.456;2022-12-26T05:10:42;8.50;99.90
51765;DHT22;37835;53.256;6.456;2022-12-26T05:13:07;8.50;99.90
51765;DHT22;37835;53.256;6.456;2022-12-26T05:15:33;8.50;99.90
51765;DHT22;37835;53.256;6.456;2022-12-26T05:18:18;8.50;99.90
51765;DHT22;37835;53.256;6.456;2022-12-26T05:21:03;8.30;99.90
51765;DHT22;37835;53.256;6.456;2022-12-26T05:23:47;6.50;99.90
51765;DHT22;37835;53.256;6.456;2022-12-26T05:26:31;8.60;99.90
51765;DHT22;37835;53.256;6.456;2022-12-26T05:29:16;7.30;99.90
51765;DHT22;37835;53.256;6.456;2022-12-26T05:31:41;8.50;99.90
51765;DHT22;37835;53.256;6.456;2022-12-26T05:34:07;8.50;99.90
51765;DHT22;37835;53.256;6.456;2022-12-26T05:36:42;8.50;99.90
51765;DHT22;37835;53.256;6.456;2022-12-26T05:39:09;8.50;99.90
51765;DHT22;37835;53.256;6.456;2022-12-26T05:41:36;8.50;99.90
51765;DHT22;37835;53.256;6.456;2022-12-26T05:46:28;8.30;99.90
51765;DHT22;37835;53.256;6.456;2022-12-26T05:48:53;8.50;99.90
51765;DHT22;37835;53.256;6.456;2022-12-26T05:51:19;8.50;99.90
51765;DHT22;37835;53.256;6.456;2022-12-26T05:53:44;8.50;99.90
51765;DHT22;37835;53.256;6.456;2022-12-26T05:56:12;7.80;99.90
51765;DHT22;37835;53.256;6.456;2022-12-26T05:58:38;8.40;99.90
51765;DHT22;37835;53.256;6.456;2022-12-26T06:01:18;8.50;99.90
51765;DHT22;37835;53.256;6.456;2022-12-26T06:03:48;8.50;99.90
51765;DHT22;37835;53.256;6.456;2022-12-26T06:06:15;8.50;99.90
51765;DHT22;37835;53.256;6.456;2022-12-26T06:08:41;8.50;99.90
51765;DHT22;37835;53.256;6.456;2022-12-26T06:11:08;8.50;99.90
51765;DHT22;37835;53.256;6.456;2022-12-26T06:13:34;8.50;99.90
51765;DHT22;37835;53.256;6.456;2022-12-26T06:16:10;8.50;99.90
51765;DHT22;37835;53.256;6.456;2022-12-26T06:18:37;8.50;99.90
51765;DHT22;37835;53.256;6.456;2022-12-26T06:21:08;10.00;99.90
51765;DHT22;37835;53.256;6.456;2022-12-26T06:23:35;8.50;99.90
51765;DHT22;37835;53.256;6.456;2022-12-26T06:26:01;8.50;99.90
51765;DHT22;37835;53.256;6.456;2022-12-26T06:28:27;8.50;99.90
51765;DHT22;37835;53.256;6.456;2022-12-26T06:30:53;8.50;99.90
51765;DHT22;37835;53.256;6.456;2022-12-26T06:33:19;7.10;99.90
51765;DHT22;37835;53.256;6.456;2022-12-26T06:35:45;8.50;99.90
51765;DHT22;37835;53.256;6.456;2022-12-26T06:38:11;8.50;99.90
51765;DHT22;37835;53.256;6.456;2022-12-26T06:40:38;8.50;99.90
51765;DHT22;37835;53.256;6.456;2022-12-26T06:43:05;8.50;99.90
51765;DHT22;37835;53.256;6.456;2022-12-26T06:45:30;8.50;99.90
51765;DHT22;37835;53.256;6.456;2022-12-26T06:47:56;8.50;99.90
51765;DHT22;37835;53.256;6.456;2022-12-26T06:50:21;8.50;99.90
51765;DHT22;37835;53.256;6.456;2022-12-26T06:52:47;10.00;99.90
51765;DHT22;37835;53.256;6.456;2022-12-26T06:55:13;8.50;99.90
51765;DHT22;37835;53.256;6.456;2022-12-26T06:57:38;8.50;99.90
51765;DHT22;37835;53.256;6.456;2022-12-26T07:00:04;8.40;99.90
51765;DHT22;37835;53.256;6.456;2022-12-26T07:02:30;8.50;99.90
51765;DHT22;37835;53.256;6.456;2022-12-26T07:04:56;10.00;99.90
51765;DHT22;37835;53.256;6.456;2022-12-26T07:07:21;8.70;99.90
51765;DHT22;37835;53.256;6.456;2022-12-26T07:09:47;8.50;99.90
51765;DHT22;37835;53.256;6.456;2022-12-26T07:12:12;8.30;99.90
51765;DHT22;37835;53.256;6.456;2022-12-26T07:14:38;8.50;99.90
51765;DHT22;37835;53.256;6.456;2022-12-26T07:17:03;8.80;99.90
51765;DHT22;37835;53.256;6.456;2022-12-26T07:19:29;8.60;99.90
51765;DHT22;37835;53.256;6.456;2022-12-26T07:21:55;8.60;99.90
51765;DHT22;37835;53.256;6.456;2022-12-26T07:24:21;8.60;99.90
51765;DHT22;37835;53.256;6.456;2022-12-26T07:26:47;8.60;99.90
51765;DHT22;37835;53.256;6.456;2022-12-26T07:29:13;8.60;99.90
51765;DHT22;37835;53.256;6.456;2022-12-26T07:31:40;8.70;99.90
51765;DHT22;37835;53.256;6.456;2022-12-26T07:34:06;8.70;99.90
51765;DHT22;37835;53.256;6.456;2022-12-26T07:36:32;8.60;99.90
51765;DHT22;37835;53.256;6.456;2022-12-26T07:38:58;8.60;99.90
51765;DHT22;37835;53.256;6.456;2022-12-26T07:41:23;9.50;99.90
51765;DHT22;37835;53.256;6.456;2022-12-26T07:44:09;8.60;99.90
51765;DHT22;37835;53.256;6.456;2022-12-26T07:46:34;8.60;99.90
51765;DHT22;37835;53.256;6.456;2022-12-26T07:49:00;8.60;99.90
51765;DHT22;37835;53.256;6.456;2022-12-26T07:51:26;8.80;99.90
51765;DHT22;37835;53.256;6.456;2022-12-26T07:53:52;8.60;99.90
51765;DHT22;37835;53.256;6.456;2022-12-26T07:56:17;8.50;99.90
51765;DHT22;37835;53.256;6.456;2022-12-26T07:58:47;8.50;99.90
51765;DHT22;37835;53.256;6.456;2022-12-26T08:01:13;8.50;99.90
51765;DHT22;37835;53.256;6.456;2022-12-26T08:03:39;8.50;99.90
51765;DHT22;37835;53.256;6.456;2022-12-26T08:06:04;8.60;99.90
51765;DHT22;37835;53.256;6.456;2022-12-26T08:08:30;8.60;99.90
51765;DHT22;37835;53.256;6.456;2022-12-26T08:11:00;8.50;99.90
51765;DHT22;37835;53.256;6.456;2022-12-26T08:13:27;8.60;99.90
51765;DHT22;37835;53.256;6.456;2022-12-26T08:15:52;8.60;99.90
51765;DHT22;37835;53.256;6.456;2022-12-26T08:18:18;8.60;99.90
51765;DHT22;37835;53.256;6.456;2022-12-26T08:20:44;8.60;99.90
51765;DHT22;37835;53.256;6.456;2022-12-26T08:23:09;8.60;99.90
51765;DHT22;37835;53.256;6.456;2022-12-26T08:25:35;8.60;99.90
51765;DHT22;37835;53.256;6.456;2022-12-26T08:28:00;8.60;99.90
51765;DHT22;37835;53.256;6.456;2022-12-26T08:30:26;8.60;99.90
51765;DHT22;37835;53.256;6.456;2022-12-26T08:32:51;9.20;99.90
51765;DHT22;37835;53.256;6.456;2022-12-26T08:35:17;8.60;99.90
51765;DHT22;37835;53.256;6.456;2022-12-26T08:37:42;8.70;99.90
51765;DHT22;37835;53.256;6.456;2022-12-26T08:40:08;8.70;99.90
51765;DHT22;37835;53.256;6.456;2022-12-26T08:42:34;10.30;99.90
51765;DHT22;37835;53.256;6.456;2022-12-26T08:45:00;8.70;99.90
51765;DHT22;37835;53.256;6.456;2022-12-26T08:47:25;8.80;99.90
51765;DHT22;37835;53.256;6.456;2022-12-26T08:49:52;8.80;99.90
51765;DHT22;37835;53.256;6.456;2022-12-26T08:52:18;8.30;99.90
51765;DHT22;37835;53.256;6.456;2022-12-26T08:54:43;8.80;99.90
51765;DHT22;37835;53.256;6.456;2022-12-26T08:57:09;8.80;99.90
51765;DHT22;37835;53.256;6.456;2022-12-26T08:59:34;8.80;99.90
51765;DHT22;37835;53.256;6.456;2022-12-26T09:02:00;8.80;99.90
51765;DHT22;37835;53.256;6.456;2022-12-26T09:04:25;8.80;99.90
51765;DHT22;37835;53.256;6.456;2022-12-26T09:06:51;8.80;99.90
51765;DHT22;37835;53.256;6.456;2022-12-26T09:09:17;8.80;99.90
51765;DHT22;37835;53.256;6.456;2022-12-26T09:11:43;8.80;99.90
51765;DHT22;37835;53.256;6.456;2022-12-26T09:14:09;9.30;99.90
51765;DHT22;37835;53.256;6.456;2022-12-26T09:16:39;8.80;99.90
51765;DHT22;37835;53.256;6.456;2022-12-26T09:19:10;8.80;99.90
51765;DHT22;37835;53.256;6.456;2022-12-26T09:21:37;8.80;99.90
51765;DHT22;37835;53.256;6.456;2022-12-26T09:24:06;8.50;99.90
51765;DHT22;37835;53.256;6.456;2022-12-26T09:26:32;8.80;99.90
51765;DHT22;37835;53.256;6.456;2022-12-26T09:28:58;8.90;99.90
51765;DHT22;37835;53.256;6.456;2022-12-26T09:31:27;8.80;99.90
51765;DHT22;37835;53.256;6.456;2022-12-26T09:33:53;9.30;99.90
51765;DHT22;37835;53.256;6.456;2022-12-26T09:36:20;8.80;99.90
51765;DHT22;37835;53.256;6.456;2022-12-26T09:38:47;8.50;99.90
51765;DHT22;37835;53.256;6.456;2022-12-26T09:41:38;9.90;99.90
51765;DHT22;37835;53.256;6.456;2022-12-26T09:44:20;9.10;99.90
51765;DHT22;37835;53.256;6.456;2022-12-26T09:49:16;8.70;99.90
51765;DHT22;37835;53.256;6.456;2022-12-26T09:51:47;6.90;99.90
51765;DHT22;37835;53.256;6.456;2022-12-26T09:54:24;8.50;99.90
51765;DHT22;37835;53.256;6.456;2022-12-26T09:56:52;8.20;99.90
51765;DHT22;37835;53.256;6.456;2022-12-26T09:59:20;9.70;99.90
51765;DHT22;37835;53.256;6.456;2022-12-26T10:01:48;7.10;99.90
51765;DHT22;37835;53.256;6.456;2022-12-26T10:04:24;6.70;99.90
51765;DHT22;37835;53.256;6.456;2022-12-26T10:10:03;7.00;99.90
51765;DHT22;37835;53.256;6.456;2022-12-26T10:15:24;6.40;99.90
51765;DHT22;37835;53.256;6.456;2022-12-26T10:20:50;7.30;99.90
51765;DHT22;37835;53.256;6.456;2022-12-26T10:23:33;7.20;99.90
51765;DHT22;37835;53.256;6.456;2022-12-26T10:26:14;7.50;99.90
51765;DHT22;37835;53.256;6.456;2022-12-26T10:28:53;7.50;99.90
51765;DHT22;37835;53.256;6.456;2022-12-26T10:31:26;7.30;99.90
51765;DHT22;37835;53.256;6.456;2022-12-26T10:36:36;7.40;99.90
51765;DHT22;37835;53.256;6.456;2022-12-26T10:39:09;7.40;99.90
51765;DHT22;37835;53.256;6.456;2022-12-26T10:41:44;6.20;99.90
51765;DHT22;37835;53.256;6.456;2022-12-26T10:44:11;7.40;99.90
51765;DHT22;37835;53.256;6.456;2022-12-26T10:49:20;7.20;99.90
51765;DHT22;37835;53.256;6.456;2022-12-26T10:51:46;7.20;99.90
51765;DHT22;37835;53.256;6.456;2022-12-26T10:54:14;9.00;99.90
51765;DHT22;37835;53.256;6.456;2022-12-26T10:56:43;7.10;99.90
51765;DHT22;37835;53.256;6.456;2022-12-26T10:59:15;7.00;99.90
51765;DHT22;37835;53.256;6.456;2022-12-26T11:01:41;7.70;99.90
51765;DHT22;37835;53.256;6.456;2022-12-26T11:04:20;6.80;99.90
51765;DHT22;37835;53.256;6.456;2022-12-26T11:06:47;6.80;99.90
51765;DHT22;37835;53.256;6.456;2022-12-26T11:09:39;6.70;99.90
51765;DHT22;37835;53.256;6.456;2022-12-26T11:12:20;6.70;99.90
51765;DHT22;37835;53.256;6.456;2022-12-26T11:14:46;5.40;99.90
51765;DHT22;37835;53.256;6.456;2022-12-26T11:17:33;6.20;99.90
51765;DHT22;37835;53.256;6.456;2022-12-26T11:22:42;6.10;99.90
51765;DHT22;37835;53.256;6.456;2022-12-26T11:25:23;7.00;99.90
51765;DHT22;37835;53.256;6.456;2022-12-26T11:27:54;6.60;99.90
51765;DHT22;37835;53.256;6.456;2022-12-26T11:30:23;5.80;99.90
51765;DHT22;37835;53.256;6.456;2022-12-26T11:33:04;6.60;99.90
51765;DHT22;37835;53.256;6.456;2022-12-26T11:35:31;5.30;99.90
51765;DHT22;37835;53.256;6.456;2022-12-26T11:38:03;6.60;99.90
51765;DHT22;37835;53.256;6.456;2022-12-26T11:40:37;6.50;99.90
51765;DHT22;37835;53.256;6.456;2022-12-26T11:43:14;7.00;99.90
51765;DHT22;37835;53.256;6.456;2022-12-26T11:45:43;6.60;99.90
51765;DHT22;37835;53.256;6.456;2022-12-26T11:48:23;6.60;99.90
51765;DHT22;37835;53.256;6.456;2022-12-26T11:50:49;6.40;99.90
51765;DHT22;37835;53.256;6.456;2022-12-26T11:53:18;10.20;99.90
51765;DHT22;37835;53.256;6.456;2022-12-26T11:55:59;6.60;99.90
51765;DHT22;37835;53.256;6.456;2022-12-26T11:58:27;5.40;99.90
51765;DHT22;37835;53.256;6.456;2022-12-26T12:03:48;6.60;99.90
51765;DHT22;37835;53.256;6.456;2022-12-26T12:06:38;6.10;99.90
51765;DHT22;37835;53.256;6.456;2022-12-26T12:09:21;5.20;99.90
51765;DHT22;37835;53.256;6.456;2022-12-26T12:12:15;6.60;99.90
51765;DHT22;37835;53.256;6.456;2022-12-26T12:45:53;7.00;99.90
51765;DHT22;37835;53.256;6.456;2022-12-26T12:48:35;5.40;99.90
51765;DHT22;37835;53.256;6.456;2022-12-26T12:51:28;6.60;99.90
51765;DHT22;37835;53.256;6.456;2022-12-26T12:54:28;6.70;99.90
51765;DHT22;37835;53.256;6.456;2022-12-26T13:08:06;5.90;99.90
51765;DHT22;37835;53.256;6.456;2022-12-26T13:10:35;6.60;99.90
51765;DHT22;37835;53.256;6.456;2022-12-26T13:13:24;7.00;99.90
51765;DHT22;37835;53.256;6.456;2022-12-26T13:15:55;5.20;99.90
51765;DHT22;37835;53.256;6.456;2022-12-26T13:18:26;6.60;99.90
51765;DHT22;37835;53.256;6.456;2022-12-26T13:20:59;6.60;99.90
51765;DHT22;37835;53.256;6.456;2022-12-26T13:26:41;6.60;99.90
51765;DHT22;37835;53.256;6.456;2022-12-26T13:29:32;6.60;99.90
51765;DHT22;37835;53.256;6.456;2022-12-26T13:31:58;6.30;99.90
51765;DHT22;37835;53.256;6.456;2022-12-26T13:34:25;9.50;99.90
51765;DHT22;37835;53.256;6.456;2022-12-26T13:36:55;7.00;99.90
51765;DHT22;37835;53.256;6.456;2022-12-26T13:44:53;6.20;99.90
51765;DHT22;37835;53.256;6.456;2022-12-26T13:47:37;6.80;99.90
51765;DHT22;37835;53.256;6.456;2022-12-26T14:18:59;7.20;99.90
51765;DHT22;37835;53.256;6.456;2022-12-26T14:21:44;4.60;99.90
51765;DHT22;37835;53.256;6.456;2022-12-26T14:41:10;5.60;99.90
51765;DHT22;37835;53.256;6.456;2022-12-26T14:43:55;6.00;99.90
51765;DHT22;37835;53.256;6.456;2022-12-26T14:49:16;6.60;99.90
51765;DHT22;37835;53.256;6.456;2022-12-26T14:51:42;5.70;99.90
51765;DHT22;37835;53.256;6.456;2022-12-26T14:56:48;5.80;99.90
51765;DHT22;37835;53.256;6.456;2022-12-26T14:59:33;5.70;99.90
51765;DHT22;37835;53.256;6.456;2022-12-26T15:13:00;5.70;99.90
51765;DHT22;37835;53.256;6.456;2022-12-26T15:21:32;5.40;99.90
51765;DHT22;37835;53.256;6.456;2022-12-26T15:24:18;5.70;99.90
51765;DHT22;37835;53.256;6.456;2022-12-26T15:29:32;5.20;99.90
51765;DHT22;37835;53.256;6.456;2022-12-26T15:34:48;4.70;99.90
51765;DHT22;37835;53.256;6.456;2022-12-26T15:37:44;4.30;99.90
51765;DHT22;37835;53.256;6.456;2022-12-26T15:40:26;5.00;99.90
51765;DHT22;37835;53.256;6.456;2022-12-26T15:43:16;5.00;99.90
51765;DHT22;37835;53.256;6.456;2022-12-26T15:45:50;4.90;99.90
51765;DHT22;37835;53.256;6.456;2022-12-26T15:48:40;4.90;99.90
51765;DHT22;37835;53.256;6.456;2022-12-26T15:51:17;4.90;99.90
51765;DHT22;37835;53.256;6.456;2022-12-26T15:59:39;4.70;99.90
51765;DHT22;37835;53.256;6.456;2022-12-26T16:04:53;5.90;99.90
51765;DHT22;37835;53.256;6.456;2022-12-26T16:07:34;4.60;99.90
51765;DHT22;37835;53.256;6.456;2022-12-26T16:13:16;4.50;99.90
51765;DHT22;37835;53.256;6.456;2022-12-26T16:15:48;5.10;99.90
51765;DHT22;37835;53.256;6.456;2022-12-26T16:18:20;4.60;99.90
51765;DHT22;37835;53.256;6.456;2022-12-26T16:20:47;4.30;99.90
51765;DHT22;37835;53.256;6.456;2022-12-26T16:23:37;4.40;99.90
51765;DHT22;37835;53.256;6.456;2022-12-26T16:26:03;3.60;99.90
51765;DHT22;37835;53.256;6.456;2022-12-26T16:28:34;4.30;99.90
51765;DHT22;37835;53.256;6.456;2022-12-26T16:31:00;4.30;99.90
51765;DHT22;37835;53.256;6.456;2022-12-26T16:33:41;4.40;99.90
51765;DHT22;37835;53.256;6.456;2022-12-26T16:36:09;3.90;99.90
51765;DHT22;37835;53.256;6.456;2022-12-26T16:38:36;4.20;99.90
51765;DHT22;37835;53.256;6.456;2022-12-26T16:41:19;3.40;99.90
51765;DHT22;37835;53.256;6.456;2022-12-26T16:43:46;4.20;99.90
51765;DHT22;37835;53.256;6.456;2022-12-26T16:46:13;4.20;99.90
51765;DHT22;37835;53.256;6.456;2022-12-26T16:48:40;4.10;99.90
51765;DHT22;37835;53.256;6.456;2022-12-26T16:51:37;5.20;99.90
51765;DHT22;37835;53.256;6.456;2022-12-26T16:57:17;3.60;99.90
51765;DHT22;37835;53.256;6.456;2022-12-26T16:59:53;4.10;99.90
51765;DHT22;37835;53.256;6.456;2022-12-26T17:02:28;3.80;99.90
51765;DHT22;37835;53.256;6.456;2022-12-26T17:05:31;4.60;99.90
51765;DHT22;37835;53.256;6.456;2022-12-26T17:07:59;3.90;99.90
51765;DHT22;37835;53.256;6.456;2022-12-26T17:10:29;4.90;99.90
51765;DHT22;37835;53.256;6.456;2022-12-26T17:12:58;4.70;99.90
51765;DHT22;37835;53.256;6.456;2022-12-26T17:15:29;4.60;99.90
51765;DHT22;37835;53.256;6.456;2022-12-26T17:17:56;4.00;99.90
51765;DHT22;37835;53.256;6.456;2022-12-26T17:22:55;4.00;99.90
51765;DHT22;37835;53.256;6.456;2022-12-26T17:25:26;4.70;99.90
51765;DHT22;37835;53.256;6.456;2022-12-26T17:30:45;4.00;99.90
51765;DHT22;37835;53.256;6.456;2022-12-26T17:33:21;4.00;99.90
51765;DHT22;37835;53.256;6.456;2022-12-26T17:36:04;4.00;99.90
51765;DHT22;37835;53.256;6.456;2022-12-26T17:38:32;4.00;99.90
51765;DHT22;37835;53.256;6.456;2022-12-26T17:41:01;3.90;99.90
51765;DHT22;37835;53.256;6.456;2022-12-26T17:43:31;3.60;99.90
51765;DHT22;37835;53.256;6.456;2022-12-26T17:45:58;3.90;99.90
51765;DHT22;37835;53.256;6.456;2022-12-26T17:48:24;3.90;99.90
51765;DHT22;37835;53.256;6.456;2022-12-26T17:50:54;3.90;99.90
51765;DHT22;37835;53.256;6.456;2022-12-26T17:53:30;3.90;99.90
51765;DHT22;37835;53.256;6.456;2022-12-26T17:56:03;3.90;99.90
51765;DHT22;37835;53.256;6.456;2022-12-26T17:58:29;3.40;99.90
51765;DHT22;37835;53.256;6.456;2022-12-26T18:00:55;3.80;99.90
51765;DHT22;37835;53.256;6.456;2022-12-26T18:03:21;3.80;99.90
51765;DHT22;37835;53.256;6.456;2022-12-26T18:05:47;2.80;99.90
51765;DHT22;37835;53.256;6.456;2022-12-26T18:08:29;4.80;99.90
51765;DHT22;37835;53.256;6.456;2022-12-26T18:10:56;3.80;99.90
51765;DHT22;37835;53.256;6.456;2022-12-26T18:13:22;3.20;99.90
51765;DHT22;37835;53.256;6.456;2022-12-26T18:15:48;3.90;99.90
51765;DHT22;37835;53.256;6.456;2022-12-26T18:18:33;3.70;99.90
51765;DHT22;37835;53.256;6.456;2022-12-26T18:21:00;3.80;99.90
51765;DHT22;37835;53.256;6.456;2022-12-26T18:23:26;3.70;99.90
51765;DHT22;37835;53.256;6.456;2022-12-26T18:25:59;3.40;99.90
51765;DHT22;37835;53.256;6.456;2022-12-26T18:28:26;3.60;99.90
51765;DHT22;37835;53.256;6.456;2022-12-26T18:30:52;3.60;99.90
51765;DHT22;37835;53.256;6.456;2022-12-26T18:35:45;2.90;99.90
51765;DHT22;37835;53.256;6.456;2022-12-26T18:38:18;3.60;99.90
51765;DHT22;37835;53.256;6.456;2022-12-26T18:40:50;4.00;99.90
51765;DHT22;37835;53.256;6.456;2022-12-26T18:43:18;4.30;99.90
51765;DHT22;37835;53.256;6.456;2022-12-26T18:45:44;3.70;99.90
51765;DHT22;37835;53.256;6.456;2022-12-26T18:48:14;3.40;99.90
51765;DHT22;37835;53.256;6.456;2022-12-26T18:50:41;4.00;99.90
51765;DHT22;37835;53.256;6.456;2022-12-26T18:53:06;3.70;99.90
51765;DHT22;37835;53.256;6.456;2022-12-26T18:55:32;3.30;99.90
51765;DHT22;37835;53.256;6.456;2022-12-26T18:57:58;3.30;99.90
51765;DHT22;37835;53.256;6.456;2022-12-26T19:00:24;3.30;99.90
51765;DHT22;37835;53.256;6.456;2022-12-26T19:02:50;4.80;99.90
51765;DHT22;37835;53.256;6.456;2022-12-26T19:05:22;3.70;99.90
51765;DHT22;37835;53.256;6.456;2022-12-26T19:07:51;3.30;99.90
51765;DHT22;37835;53.256;6.456;2022-12-26T19:10:18;3.60;99.90
51765;DHT22;37835;53.256;6.456;2022-12-26T19:12:45;3.30;99.90
51765;DHT22;37835;53.256;6.456;2022-12-26T19:15:12;3.10;99.90
51765;DHT22;37835;53.256;6.456;2022-12-26T19:17:38;3.00;99.90
51765;DHT22;37835;53.256;6.456;2022-12-26T19:20:06;2.90;99.90
51765;DHT22;37835;53.256;6.456;2022-12-26T19:22:32;3.80;99.90
51765;DHT22;37835;53.256;6.456;2022-12-26T19:24:58;3.40;99.90
51765;DHT22;37835;53.256;6.456;2022-12-26T19:29:49;2.90;99.90
51765;DHT22;37835;53.256;6.456;2022-12-26T19:32:15;3.40;99.90
51765;DHT22;37835;53.256;6.456;2022-12-26T19:34:41;3.00;99.90
51765;DHT22;37835;53.256;6.456;2022-12-26T19:37:06;3.40;99.90
51765;DHT22;37835;53.256;6.456;2022-12-26T19:39:32;3.50;99.90
51765;DHT22;37835;53.256;6.456;2022-12-26T19:41:57;3.10;99.90
51765;DHT22;37835;53.256;6.456;2022-12-26T19:46:49;3.70;99.90
51765;DHT22;37835;53.256;6.456;2022-12-26T19:49:15;3.40;99.90
51765;DHT22;37835;53.256;6.456;2022-12-26T19:51:41;4.10;99.90
51765;DHT22;37835;53.256;6.456;2022-12-26T19:54:07;3.40;99.90
51765;DHT22;37835;53.256;6.456;2022-12-26T19:56:32;4.30;99.90